PWSweather.com
Personal Weather Stations
Station Observations
KPASPRIN10
East Vincent, East Vincent, PA 19475

East VincentEast Vincent, PA 19475

Lat: 40.170948, Lon: -75.629681

Elevation: 404

Station Type: Davis VP2

http://www.evweather.com

Latest ConditionsUpdated 8:30:02 PM EDT Wednesday, Aug 15, 2018
Currently Today's Max Today's Min Today's Average
Temperature 77.2°F25.1°C 85.9°F29.9°C 67.5°F19.7°C 76.9°F24.9°C
Dew Point 72.0°F22.2°C 74.3°F23.5°C 65.5°F18.6°C 69.6°F20.9°C
Winds 2.3 mph WSW3.7 kmh WSW 8.1 mph -13.0 kmh - - 4.7 mph 7.6 kmh
Wind Gusts 3.5 mph5.6 kmh 12.7 mph20.4 kmh - -
Humidity 84% 94% 60% 79%
Pressure 29.95 in1014.2 mb 29.95 in1014.2 mb 29.86 in1011.2 mb -
Hour Temp Dew Point Humidity Winds Wind Gusts Pressure Precip Precip Rate Daily Precip Total
08:30 PM 77.2°F25.1°C 72.0°F22.2°C 84% 2.3 mph WSW3.7 kmh WSW 3.5 mph5.6 kmh 29.95 in1014.2 mb - 0.00 in0.0 mm 0.00 in0.0 mm
08:20 PM 77.4°F25.2°C 71.5°F21.9°C 82% 2.3 mph WSW3.7 kmh WSW 3.5 mph5.6 kmh 29.95 in1014.2 mb - 0.00 in0.0 mm 0.00 in0.0 mm
08:10 PM 77.8°F25.4°C 71.5°F21.9°C 81% 2.3 mph WSW3.7 kmh WSW 2.3 mph3.7 kmh 29.94 in1013.9 mb - 0.00 in0.0 mm 0.00 in0.0 mm
08:00 PM 78.2°F25.7°C 71.9°F22.2°C 81% 2.3 mph WSW3.7 kmh WSW 4.6 mph7.4 kmh 29.94 in1013.9 mb - 0.00 in0.0 mm 0.00 in0.0 mm
07:50 PM 78.2°F25.7°C 71.5°F21.9°C 80% 1.2 mph WSW1.9 kmh WSW 2.3 mph3.7 kmh 29.94 in1013.9 mb - 0.00 in0.0 mm 0.00 in0.0 mm
07:40 PM 79.0°F26.1°C 72.7°F22.6°C 81% 1.2 mph WSW1.9 kmh WSW 2.3 mph3.7 kmh 29.93 in1013.5 mb - 0.00 in0.0 mm 0.00 in0.0 mm
07:30 PM 80.2°F26.8°C 71.9°F22.2°C 76% 1.2 mph WSW1.9 kmh WSW 3.5 mph5.6 kmh 29.93 in1013.5 mb - 0.00 in0.0 mm 0.00 in0.0 mm
07:20 PM 80.9°F27.2°C 72.2°F22.3°C 75% 1.2 mph WSW1.9 kmh WSW 3.5 mph5.6 kmh 29.93 in1013.5 mb - 0.00 in0.0 mm 0.00 in0.0 mm
07:10 PM 81.2°F27.3°C 72.9°F22.7°C 76% 1.2 mph WSW1.9 kmh WSW 2.3 mph3.7 kmh 29.93 in1013.5 mb - 0.00 in0.0 mm 0.00 in0.0 mm
07:00 PM 81.2°F27.3°C 72.9°F22.7°C 76% 1.2 mph WSW1.9 kmh WSW 2.3 mph3.7 kmh 29.93 in1013.5 mb - 0.00 in0.0 mm 0.00 in0.0 mm
06:50 PM 81.8°F27.7°C 72.3°F22.4°C 73% 1.2 mph WSW1.9 kmh WSW 2.3 mph3.7 kmh 29.93 in1013.5 mb - 0.00 in0.0 mm 0.00 in0.0 mm
06:40 PM 82.4°F28.0°C 72.0°F22.2°C 71% 1.2 mph WSW1.9 kmh WSW 2.3 mph3.7 kmh 29.93 in1013.5 mb - 0.00 in0.0 mm 0.00 in0.0 mm
06:30 PM 83.1°F28.4°C 72.3°F22.4°C 70% 2.3 mph WSW3.7 kmh WSW 3.5 mph5.6 kmh 29.92 in1013.2 mb - 0.00 in0.0 mm 0.00 in0.0 mm
06:20 PM 84.1°F28.9°C 72.4°F22.4°C 68% 2.3 mph W3.7 kmh W 3.5 mph5.6 kmh 29.93 in1013.5 mb - 0.00 in0.0 mm 0.00 in0.0 mm
06:10 PM 84.6°F29.2°C 72.0°F22.2°C 66% 3.5 mph WSW5.6 kmh WSW 4.6 mph7.4 kmh 29.93 in1013.5 mb - 0.00 in0.0 mm 0.00 in0.0 mm
06:00 PM 84.9°F29.4°C 72.7°F22.6°C 67% 3.5 mph SW5.6 kmh SW 4.6 mph7.4 kmh 29.93 in1013.5 mb - 0.00 in0.0 mm 0.00 in0.0 mm
05:50 PM 85.0°F29.4°C 71.9°F22.2°C 65% 3.5 mph WSW5.6 kmh WSW 4.6 mph7.4 kmh 29.93 in1013.5 mb - 0.00 in0.0 mm 0.00 in0.0 mm
05:40 PM 85.1°F29.5°C 73.3°F22.9°C 68% 3.5 mph SW5.6 kmh SW 4.6 mph7.4 kmh 29.93 in1013.5 mb - 0.00 in0.0 mm 0.00 in0.0 mm
05:30 PM 85.0°F29.4°C 72.8°F22.7°C 67% 3.5 mph WSW5.6 kmh WSW 3.5 mph5.6 kmh 29.93 in1013.5 mb - 0.00 in0.0 mm 0.00 in0.0 mm
05:20 PM 84.1°F28.9°C 72.0°F22.2°C 67% 3.5 mph WSW5.6 kmh WSW 3.5 mph5.6 kmh 29.93 in1013.5 mb - 0.00 in0.0 mm 0.00 in0.0 mm
05:10 PM 84.9°F29.4°C 71.4°F21.9°C 64% 4.6 mph WSW7.4 kmh WSW 6.9 mph11.1 kmh 29.93 in1013.5 mb - 0.00 in0.0 mm 0.00 in0.0 mm
05:00 PM 85.4°F29.7°C 73.2°F22.9°C 67% 3.5 mph W5.6 kmh W 5.8 mph9.3 kmh 29.93 in1013.5 mb - 0.00 in0.0 mm 0.00 in0.0 mm
04:50 PM 84.9°F29.4°C 70.9°F21.6°C 63% 4.6 mph W7.4 kmh W 10.4 mph16.7 kmh 29.92 in1013.2 mb - 0.00 in0.0 mm 0.00 in0.0 mm
04:40 PM 85.7°F29.8°C 71.7°F22.1°C 63% 5.8 mph WSW9.3 kmh WSW 11.5 mph18.5 kmh 29.93 in1013.5 mb - 0.00 in0.0 mm 0.00 in0.0 mm
04:30 PM 85.7°F29.8°C 74.3°F23.5°C 69% 3.5 mph WSW5.6 kmh WSW 4.6 mph7.4 kmh 29.93 in1013.5 mb - 0.00 in0.0 mm 0.00 in0.0 mm
04:20 PM 85.3°F29.6°C 71.7°F22.1°C 64% 4.6 mph WSW7.4 kmh WSW 5.8 mph9.3 kmh 29.93 in1013.5 mb - 0.00 in0.0 mm 0.00 in0.0 mm
04:10 PM 85.2°F29.6°C 70.7°F21.5°C 62% 8.1 mph W13.0 kmh W 9.2 mph14.8 kmh 29.93 in1013.5 mb - 0.00 in0.0 mm 0.00 in0.0 mm
04:00 PM 85.8°F29.9°C 70.8°F21.6°C 61% 6.9 mph WNW11.1 kmh WNW 10.4 mph16.7 kmh 29.93 in1013.5 mb - 0.00 in0.0 mm 0.00 in0.0 mm
03:50 PM 85.5°F29.7°C 70.5°F21.4°C 61% 2.3 mph W3.7 kmh W 3.5 mph5.6 kmh 29.93 in1013.5 mb - 0.00 in0.0 mm 0.00 in0.0 mm
03:40 PM 85.6°F29.8°C 72.5°F22.5°C 65% 3.5 mph NW5.6 kmh NW 6.9 mph11.1 kmh 29.93 in1013.5 mb - 0.00 in0.0 mm 0.00 in0.0 mm
03:30 PM 85.9°F29.9°C 72.3°F22.4°C 64% 5.8 mph NW9.3 kmh NW 8.1 mph13.0 kmh 29.93 in1013.5 mb - 0.00 in0.0 mm 0.00 in0.0 mm
03:20 PM 85.1°F29.5°C 69.6°F20.9°C 60% 4.6 mph WNW7.4 kmh WNW 9.2 mph14.8 kmh 29.93 in1013.5 mb - 0.00 in0.0 mm 0.00 in0.0 mm
03:10 PM 85.4°F29.7°C 71.8°F22.1°C 64% 4.6 mph W7.4 kmh W 6.9 mph11.1 kmh 29.93 in1013.5 mb - 0.00 in0.0 mm 0.00 in0.0 mm
03:00 PM 85.1°F29.5°C 70.1°F21.2°C 61% 3.5 mph NW5.6 kmh NW 9.2 mph14.8 kmh 29.93 in1013.5 mb - 0.00 in0.0 mm 0.00 in0.0 mm
02:50 PM 85.2°F29.6°C 73.4°F23.0°C 68% 5.8 mph WSW9.3 kmh WSW 9.2 mph14.8 kmh 29.94 in1013.9 mb - 0.00 in0.0 mm 0.00 in0.0 mm
02:40 PM 85.5°F29.7°C 72.8°F22.7°C 66% 3.5 mph W5.6 kmh W 9.2 mph14.8 kmh 29.94 in1013.9 mb - 0.00 in0.0 mm 0.00 in0.0 mm
02:30 PM 84.7°F29.3°C 70.3°F21.3°C 62% 3.5 mph WNW5.6 kmh WNW 3.5 mph5.6 kmh 29.94 in1013.9 mb - 0.00 in0.0 mm 0.00 in0.0 mm
02:20 PM 85.1°F29.5°C 72.4°F22.4°C 66% 4.6 mph W7.4 kmh W 9.2 mph14.8 kmh 29.94 in1013.9 mb - 0.00 in0.0 mm 0.00 in0.0 mm
02:10 PM 85.1°F29.5°C 73.8°F23.2°C 69% 4.6 mph NNW7.4 kmh NNW 3.5 mph5.6 kmh 29.94 in1013.9 mb - 0.00 in0.0 mm 0.00 in0.0 mm
02:00 PM 84.7°F29.3°C 71.1°F21.7°C 64% 4.6 mph NW7.4 kmh NW 5.8 mph9.3 kmh 29.94 in1013.9 mb - 0.00 in0.0 mm 0.00 in0.0 mm
01:50 PM 84.4°F29.1°C 71.3°F21.8°C 65% 5.8 mph WSW9.3 kmh WSW 8.1 mph13.0 kmh 29.94 in1013.9 mb - 0.00 in0.0 mm 0.00 in0.0 mm
01:40 PM 83.7°F28.7°C 73.7°F23.2°C 72% 3.5 mph N5.6 kmh N 8.1 mph13.0 kmh 29.94 in1013.9 mb - 0.00 in0.0 mm 0.00 in0.0 mm
01:30 PM 83.4°F28.6°C 72.6°F22.6°C 70% 2.3 mph WNW3.7 kmh WNW 6.9 mph11.1 kmh 29.94 in1013.9 mb - 0.00 in0.0 mm 0.00 in0.0 mm
01:20 PM 83.2°F28.4°C 71.5°F21.9°C 68% 5.8 mph NW9.3 kmh NW 9.2 mph14.8 kmh 29.95 in1014.2 mb - 0.00 in0.0 mm 0.00 in0.0 mm
01:10 PM 83.8°F28.8°C 73.4°F23.0°C 71% 3.5 mph WNW5.6 kmh WNW 4.6 mph7.4 kmh 29.94 in1013.9 mb - 0.00 in0.0 mm 0.00 in0.0 mm
01:00 PM 82.9°F28.3°C 71.3°F21.8°C 68% 6.9 mph W11.1 kmh W 6.9 mph11.1 kmh 29.94 in1013.9 mb - 0.00 in0.0 mm 0.00 in0.0 mm
12:50 PM 83.4°F28.6°C 71.7°F22.1°C 68% 2.3 mph NNW3.7 kmh NNW 3.5 mph5.6 kmh 29.95 in1014.2 mb - 0.00 in0.0 mm 0.00 in0.0 mm
12:40 PM 82.8°F28.2°C 71.2°F21.8°C 68% 6.9 mph W11.1 kmh W 10.4 mph16.7 kmh 29.94 in1013.9 mb - 0.00 in0.0 mm 0.00 in0.0 mm
12:30 PM 83.2°F28.4°C 73.6°F23.1°C 73% 3.5 mph WSW5.6 kmh WSW 4.6 mph7.4 kmh 29.95 in1014.2 mb - 0.00 in0.0 mm 0.00 in0.0 mm
12:20 PM 82.3°F27.9°C 71.1°F21.7°C 69% 8.1 mph W13.0 kmh W 10.4 mph16.7 kmh 29.94 in1013.9 mb - 0.00 in0.0 mm 0.00 in0.0 mm
12:10 PM 82.2°F27.9°C 72.3°F22.4°C 72% 5.8 mph WSW9.3 kmh WSW 8.1 mph13.0 kmh 29.94 in1013.9 mb - 0.00 in0.0 mm 0.00 in0.0 mm
12:00 PM 82.5°F28.1°C 71.7°F22.1°C 70% 4.6 mph WNW7.4 kmh WNW 6.9 mph11.1 kmh 29.95 in1014.2 mb - 0.00 in0.0 mm 0.00 in0.0 mm
11:50 AM 82.0°F27.8°C 71.2°F21.8°C 70% 3.5 mph NNE5.6 kmh NNE 3.5 mph5.6 kmh 29.95 in1014.2 mb - 0.00 in0.0 mm 0.00 in0.0 mm
11:40 AM 81.8°F27.7°C 72.3°F22.4°C 73% 3.5 mph WNW5.6 kmh WNW 6.9 mph11.1 kmh 29.94 in1013.9 mb - 0.00 in0.0 mm 0.00 in0.0 mm
11:30 AM 81.2°F27.3°C 70.5°F21.4°C 70% 2.3 mph WNW3.7 kmh WNW 6.9 mph11.1 kmh 29.94 in1013.9 mb - 0.00 in0.0 mm 0.00 in0.0 mm
11:20 AM 81.0°F27.2°C 71.9°F22.2°C 74% 4.6 mph N7.4 kmh N 8.1 mph13.0 kmh 29.95 in1014.2 mb - 0.00 in0.0 mm 0.00 in0.0 mm
11:10 AM 80.7°F27.1°C 71.3°F21.8°C 73% 5.8 mph W9.3 kmh W 6.9 mph11.1 kmh 29.95 in1014.2 mb - 0.00 in0.0 mm 0.00 in0.0 mm
11:00 AM 80.9°F27.2°C 72.6°F22.6°C 76% 3.5 mph W5.6 kmh W 3.5 mph5.6 kmh 29.95 in1014.2 mb - 0.00 in0.0 mm 0.00 in0.0 mm
10:50 AM 80.2°F26.8°C 71.9°F22.2°C 76% 2.3 mph NW3.7 kmh NW 3.5 mph5.6 kmh 29.95 in1014.2 mb - 0.00 in0.0 mm 0.00 in0.0 mm
10:40 AM 79.6°F26.4°C 72.1°F22.3°C 78% 5.8 mph WSW9.3 kmh WSW 8.1 mph13.0 kmh 29.95 in1014.2 mb - 0.00 in0.0 mm 0.00 in0.0 mm
10:30 AM 78.6°F25.9°C 70.4°F21.3°C 76% 6.9 mph WSW11.1 kmh WSW 10.4 mph16.7 kmh 29.95 in1014.2 mb - 0.00 in0.0 mm 0.00 in0.0 mm
10:20 AM 78.5°F25.8°C 71.1°F21.7°C 78% 4.6 mph W7.4 kmh W 8.1 mph13.0 kmh 29.95 in1014.2 mb - 0.00 in0.0 mm 0.00 in0.0 mm
10:10 AM 78.4°F25.8°C 71.7°F22.1°C 80% 5.8 mph WSW9.3 kmh WSW 8.1 mph13.0 kmh 29.94 in1013.9 mb - 0.00 in0.0 mm 0.00 in0.0 mm
10:00 AM 78.4°F25.8°C 71.7°F22.1°C 80% 5.8 mph WSW9.3 kmh WSW 11.5 mph18.5 kmh 29.94 in1013.9 mb - 0.00 in0.0 mm 0.00 in0.0 mm
09:50 AM 77.7°F25.4°C 70.3°F21.3°C 78% 5.8 mph W9.3 kmh W 11.5 mph18.5 kmh 29.93 in1013.5 mb - 0.00 in0.0 mm 0.00 in0.0 mm
09:40 AM 77.5°F25.3°C 71.2°F21.8°C 81% 4.6 mph WNW7.4 kmh WNW 5.8 mph9.3 kmh 29.93 in1013.5 mb - 0.00 in0.0 mm 0.00 in0.0 mm
09:30 AM 76.8°F24.9°C 70.5°F21.4°C 81% 3.5 mph W5.6 kmh W 5.8 mph9.3 kmh 29.93 in1013.5 mb - 0.00 in0.0 mm 0.00 in0.0 mm
09:20 AM 76.2°F24.6°C 69.9°F21.1°C 81% 4.6 mph W7.4 kmh W 6.9 mph11.1 kmh 29.93 in1013.5 mb - 0.00 in0.0 mm 0.00 in0.0 mm
09:10 AM 75.6°F24.2°C 70.4°F21.3°C 84% 5.8 mph W9.3 kmh W 10.4 mph16.7 kmh 29.93 in1013.5 mb - 0.00 in0.0 mm 0.00 in0.0 mm
09:00 AM 74.9°F23.8°C 70.4°F21.3°C 86% 5.8 mph W9.3 kmh W 6.9 mph11.1 kmh 29.93 in1013.5 mb - 0.00 in0.0 mm 0.00 in0.0 mm
08:50 AM 74.0°F23.3°C 69.2°F20.7°C 85% 4.6 mph WSW7.4 kmh WSW 8.1 mph13.0 kmh 29.93 in1013.5 mb - 0.00 in0.0 mm 0.00 in0.0 mm
08:40 AM 73.7°F23.2°C 69.2°F20.7°C 86% 3.5 mph WSW5.6 kmh WSW 6.9 mph11.1 kmh 29.93 in1013.5 mb - 0.00 in0.0 mm 0.00 in0.0 mm
08:30 AM 72.9°F22.7°C 68.4°F20.2°C 86% 3.5 mph WSW5.6 kmh WSW 4.6 mph7.4 kmh 29.92 in1013.2 mb - 0.00 in0.0 mm 0.00 in0.0 mm
08:20 AM 72.4°F22.4°C 68.3°F20.2°C 87% 6.9 mph WSW11.1 kmh WSW 10.4 mph16.7 kmh 29.92 in1013.2 mb - 0.00 in0.0 mm 0.00 in0.0 mm
08:10 AM 71.8°F22.1°C 68.1°F20.1°C 88% 5.8 mph WSW9.3 kmh WSW 9.2 mph14.8 kmh 29.92 in1013.2 mb - 0.00 in0.0 mm 0.00 in0.0 mm
08:00 AM 71.2°F21.8°C 67.8°F19.9°C 89% 6.9 mph WSW11.1 kmh WSW 9.2 mph14.8 kmh 29.91 in1012.9 mb - 0.00 in0.0 mm 0.00 in0.0 mm
07:50 AM 70.6°F21.4°C 67.5°F19.7°C 90% 6.9 mph W11.1 kmh W 9.2 mph14.8 kmh 29.91 in1012.9 mb - 0.00 in0.0 mm 0.00 in0.0 mm
07:40 AM 69.8°F21.0°C 67.1°F19.5°C 91% 4.6 mph W7.4 kmh W 5.8 mph9.3 kmh 29.91 in1012.9 mb - 0.00 in0.0 mm 0.00 in0.0 mm
07:30 AM 69.1°F20.6°C 66.7°F19.3°C 92% 5.8 mph W9.3 kmh W 9.2 mph14.8 kmh 29.91 in1012.9 mb - 0.00 in0.0 mm 0.00 in0.0 mm
07:20 AM 68.4°F20.2°C 66.3°F19.1°C 93% 3.5 mph WSW5.6 kmh WSW 3.5 mph5.6 kmh 29.91 in1012.9 mb - 0.00 in0.0 mm 0.00 in0.0 mm
07:10 AM 67.9°F19.9°C 66.1°F18.9°C 94% 4.6 mph W7.4 kmh W 5.8 mph9.3 kmh 29.91 in1012.9 mb - 0.00 in0.0 mm 0.00 in0.0 mm
07:00 AM 67.6°F19.8°C 65.8°F18.8°C 94% 4.6 mph W7.4 kmh W 6.9 mph11.1 kmh 29.91 in1012.9 mb - 0.00 in0.0 mm 0.00 in0.0 mm
06:50 AM 67.5°F19.7°C 65.7°F18.7°C 94% 3.5 mph W5.6 kmh W 3.5 mph5.6 kmh 29.91 in1012.9 mb - 0.00 in0.0 mm 0.00 in0.0 mm
06:40 AM 67.5°F19.7°C 65.7°F18.7°C 94% 4.6 mph WSW7.4 kmh WSW 6.9 mph11.1 kmh 29.90 in1012.5 mb - 0.00 in0.0 mm 0.00 in0.0 mm
06:30 AM 67.6°F19.8°C 65.5°F18.6°C 93% 6.9 mph WSW11.1 kmh WSW 10.4 mph16.7 kmh 29.90 in1012.5 mb - 0.00 in0.0 mm 0.00 in0.0 mm
06:20 AM 67.7°F19.8°C 65.6°F18.7°C 93% 4.6 mph WSW7.4 kmh WSW 6.9 mph11.1 kmh 29.89 in1012.2 mb - 0.00 in0.0 mm 0.00 in0.0 mm
06:10 AM 67.9°F19.9°C 65.8°F18.8°C 93% 3.5 mph WSW5.6 kmh WSW 4.6 mph7.4 kmh 29.89 in1012.2 mb - 0.00 in0.0 mm 0.00 in0.0 mm
06:00 AM 68.3°F20.2°C 65.9°F18.8°C 92% 5.8 mph WSW9.3 kmh WSW 9.2 mph14.8 kmh 29.88 in1011.9 mb - 0.00 in0.0 mm 0.00 in0.0 mm
05:50 AM 68.4°F20.2°C 66.0°F18.9°C 92% 5.8 mph W9.3 kmh W 6.9 mph11.1 kmh 29.88 in1011.9 mb - 0.00 in0.0 mm 0.00 in0.0 mm
05:40 AM 68.5°F20.3°C 66.1°F18.9°C 92% 5.8 mph WSW9.3 kmh WSW 8.1 mph13.0 kmh 29.88 in1011.9 mb - 0.00 in0.0 mm 0.00 in0.0 mm
05:30 AM 68.6°F20.3°C 66.2°F19.0°C 92% 6.9 mph WSW11.1 kmh WSW 9.2 mph14.8 kmh 29.87 in1011.5 mb - 0.00 in0.0 mm 0.00 in0.0 mm
05:20 AM 68.7°F20.4°C 66.0°F18.9°C 91% 8.1 mph WSW13.0 kmh WSW 10.4 mph16.7 kmh 29.87 in1011.5 mb - 0.00 in0.0 mm 0.00 in0.0 mm
05:10 AM 69.0°F20.6°C 66.2°F19.0°C 91% 5.8 mph WSW9.3 kmh WSW 8.1 mph13.0 kmh 29.87 in1011.5 mb - 0.00 in0.0 mm 0.00 in0.0 mm
05:00 AM 69.0°F20.6°C 66.3°F19.1°C 91% 5.8 mph WSW9.3 kmh WSW 9.2 mph14.8 kmh 29.87 in1011.5 mb - 0.00 in0.0 mm 0.00 in0.0 mm
04:50 AM 69.2°F20.7°C 66.1°F18.9°C 90% 4.6 mph WSW7.4 kmh WSW 4.6 mph7.4 kmh 29.87 in1011.5 mb - 0.00 in0.0 mm 0.00 in0.0 mm
04:40 AM 69.4°F20.8°C 66.3°F19.1°C 90% 6.9 mph WSW11.1 kmh WSW 8.1 mph13.0 kmh 29.87 in1011.5 mb - 0.00 in0.0 mm 0.00 in0.0 mm
04:30 AM 69.5°F20.8°C 66.4°F19.1°C 90% 8.1 mph W13.0 kmh W 11.5 mph18.5 kmh 29.87 in1011.5 mb - 0.00 in0.0 mm 0.00 in0.0 mm
04:20 AM 69.5°F20.8°C 66.4°F19.1°C 90% 4.6 mph WSW7.4 kmh WSW 6.9 mph11.1 kmh 29.87 in1011.5 mb - 0.00 in0.0 mm 0.00 in0.0 mm
04:10 AM 69.5°F20.8°C 66.4°F19.1°C 90% 3.5 mph W5.6 kmh W 5.8 mph9.3 kmh 29.87 in1011.5 mb - 0.00 in0.0 mm 0.00 in0.0 mm
04:00 AM 69.5°F20.8°C 66.4°F19.1°C 90% 6.9 mph W11.1 kmh W 6.9 mph11.1 kmh 29.87 in1011.5 mb - 0.00 in0.0 mm 0.00 in0.0 mm
03:50 AM 69.4°F20.8°C 66.4°F19.1°C 90% 5.8 mph WSW9.3 kmh WSW 6.9 mph11.1 kmh 29.87 in1011.5 mb - 0.00 in0.0 mm 0.00 in0.0 mm
03:40 AM 69.6°F20.9°C 66.5°F19.2°C 90% 5.8 mph W9.3 kmh W 10.4 mph16.7 kmh 29.87 in1011.5 mb - 0.00 in0.0 mm 0.00 in0.0 mm
03:30 AM 69.7°F20.9°C 66.6°F19.2°C 90% 6.9 mph WSW11.1 kmh WSW 9.2 mph14.8 kmh 29.87 in1011.5 mb - 0.00 in0.0 mm 0.00 in0.0 mm
03:20 AM 69.5°F20.8°C 66.4°F19.1°C 90% 8.1 mph WSW13.0 kmh WSW 11.5 mph18.5 kmh 29.87 in1011.5 mb - 0.00 in0.0 mm 0.00 in0.0 mm
03:10 AM 69.7°F20.9°C 66.6°F19.2°C 90% 6.9 mph WSW11.1 kmh WSW 12.7 mph20.4 kmh 29.87 in1011.5 mb - 0.00 in0.0 mm 0.00 in0.0 mm
03:00 AM 69.7°F20.9°C 66.6°F19.2°C 90% 6.9 mph WSW11.1 kmh WSW 12.7 mph20.4 kmh 29.87 in1011.5 mb - 0.00 in0.0 mm 0.00 in0.0 mm
02:50 AM 69.8°F21.0°C 66.4°F19.1°C 89% 8.1 mph WSW13.0 kmh WSW 11.5 mph18.5 kmh 29.86 in1011.2 mb - 0.00 in0.0 mm 0.00 in0.0 mm
02:40 AM 70.0°F21.1°C 66.6°F19.2°C 89% 5.8 mph W9.3 kmh W 6.9 mph11.1 kmh 29.86 in1011.2 mb - 0.00 in0.0 mm 0.00 in0.0 mm
02:30 AM 70.2°F21.2°C 66.8°F19.3°C 89% 5.8 mph WSW9.3 kmh WSW 9.2 mph14.8 kmh 29.86 in1011.2 mb - 0.00 in0.0 mm 0.00 in0.0 mm
02:20 AM 70.3°F21.3°C 66.9°F19.4°C 89% 5.8 mph WSW9.3 kmh WSW 6.9 mph11.1 kmh 29.86 in1011.2 mb - 0.00 in0.0 mm 0.00 in0.0 mm
02:00 AM 70.0°F21.1°C 66.6°F19.2°C 89% 8.1 mph SW13.0 kmh SW 10.4 mph16.7 kmh 29.86 in1011.2 mb - 0.00 in0.0 mm 0.00 in0.0 mm
01:50 AM 70.1°F21.2°C 66.7°F19.3°C 89% 4.6 mph WSW7.4 kmh WSW 9.2 mph14.8 kmh 29.86 in1011.2 mb - 0.00 in0.0 mm 0.00 in0.0 mm
01:40 AM 70.0°F21.1°C 66.6°F19.2°C 89% 3.5 mph SW5.6 kmh SW 5.8 mph9.3 kmh 29.86 in1011.2 mb - 0.00 in0.0 mm 0.00 in0.0 mm
01:30 AM 70.1°F21.2°C 66.7°F19.3°C 89% 2.3 mph SW3.7 kmh SW 2.3 mph3.7 kmh 29.86 in1011.2 mb - 0.00 in0.0 mm 0.00 in0.0 mm
01:20 AM 70.3°F21.3°C 66.6°F19.2°C 88% 3.5 mph WSW5.6 kmh WSW 3.5 mph5.6 kmh 29.87 in1011.5 mb - 0.00 in0.0 mm 0.00 in0.0 mm
01:10 AM 70.4°F21.3°C 66.7°F19.3°C 88% 4.6 mph W7.4 kmh W 4.6 mph7.4 kmh 29.87 in1011.5 mb - 0.00 in0.0 mm 0.00 in0.0 mm
01:00 AM 70.7°F21.5°C 66.6°F19.2°C 87% 5.8 mph SW9.3 kmh SW 8.1 mph13.0 kmh 29.87 in1011.5 mb - 0.00 in0.0 mm 0.00 in0.0 mm
12:50 AM 70.6°F21.4°C 66.9°F19.4°C 88% 3.5 mph WSW5.6 kmh WSW 9.2 mph14.8 kmh 29.87 in1011.5 mb - 0.00 in0.0 mm 0.00 in0.0 mm
12:40 AM 70.7°F21.5°C 67.0°F19.4°C 88% 5.8 mph WSW9.3 kmh WSW 11.5 mph18.5 kmh 29.87 in1011.5 mb - 0.00 in0.0 mm 0.00 in0.0 mm
12:30 AM 70.7°F21.5°C 67.0°F19.4°C 88% 6.9 mph WSW11.1 kmh WSW 6.9 mph11.1 kmh 29.87 in1011.5 mb - 0.00 in0.0 mm 0.00 in0.0 mm
12:20 AM 70.8°F21.6°C 67.1°F19.5°C 88% 6.9 mph WSW11.1 kmh WSW 11.5 mph18.5 kmh 29.87 in1011.5 mb - 0.00 in0.0 mm 0.00 in0.0 mm
12:10 AM 70.9°F21.6°C 67.2°F19.6°C 88% 6.9 mph WSW11.1 kmh WSW 9.2 mph14.8 kmh 29.87 in1011.5 mb - 0.00 in0.0 mm 0.00 in0.0 mm
12:00 AM 70.8°F21.6°C 67.1°F19.5°C 88% 6.9 mph WSW11.1 kmh WSW 10.4 mph16.7 kmh 29.87 in1011.5 mb - 0.00 in0.0 mm 0.00 in0.0 mm